Jahrom Airport


Codes: OISJ/JAR
Name: Jahrom Airport
City: Jahrom
Country: Iran
Elevation: 3358 ft.
Wikipedia:

Photos at Jahrom Airport


   Photos courtesy of SpottingLog. You can add your own sightings and photos by signing up for a free trial today.



No photos found.

Weather at Jahrom Airport


Time (UTC)DescriptionTempratureWindCloud coverageVisibilityPressureHumidity
16-Jun-2024 09:00Clear Sky38°C7 mph, SW0%10000m1004hPa9%
16-Jun-2024 12:00Clear Sky38°C7 mph, SW0%10000m1003hPa8%
16-Jun-2024 15:00Clear Sky37°C9 mph, SW2%10000m1003hPa11%
16-Jun-2024 18:00Clear Sky32°C7 mph, SW3%10000m1006hPa15%
16-Jun-2024 21:00Clear Sky30°C2 mph, SW0%10000m1005hPa19%
17-Jun-2024 00:00Clear Sky28°C2 mph, NE0%10000m1006hPa21%
17-Jun-2024 03:00Clear Sky30°C2 mph, NE0%10000m1008hPa19%
17-Jun-2024 06:00Clear Sky36°C4 mph, NE0%10000m1007hPa14%
17-Jun-2024 09:00Clear Sky39°C2 mph, SE0%10000m1005hPa10%
17-Jun-2024 12:00Few Clouds40°C4 mph, SW18%10000m1003hPa9%
17-Jun-2024 15:00Broken Clouds38°C2 mph, SE75%10000m1004hPa12%
17-Jun-2024 18:00Overcast Clouds35°C4 mph, NW85%10000m1006hPa15%
17-Jun-2024 21:00Broken Clouds33°C2 mph, E79%10000m1006hPa19%
18-Jun-2024 00:00Scattered Clouds31°C4 mph, N46%10000m1006hPa22%
18-Jun-2024 03:00Few Clouds32°C2 mph, NE12%10000m1008hPa21%
18-Jun-2024 06:00Clear Sky37°C4 mph, NE7%10000m1007hPa16%
18-Jun-2024 09:00Clear Sky39°C4 mph, E5%10000m1005hPa13%
18-Jun-2024 12:00Few Clouds40°C2 mph, SW13%10000m1003hPa11%
18-Jun-2024 15:00Broken Clouds38°C4 mph, W59%10000m1003hPa14%
18-Jun-2024 18:00Broken Clouds35°C9 mph, W74%10000m1006hPa19%
18-Jun-2024 21:00Broken Clouds33°C7 mph, NW79%10000m1006hPa23%
19-Jun-2024 00:00Broken Clouds31°C4 mph, NW66%10000m1006hPa26%
19-Jun-2024 03:00Few Clouds32°C4 mph, NE12%10000m1007hPa21%
19-Jun-2024 06:00Scattered Clouds38°C11 mph, NE34%10000m1006hPa11%
19-Jun-2024 09:00Few Clouds40°C4 mph, NE14%10000m1003hPa10%
19-Jun-2024 12:00Few Clouds41°C2 mph, E19%10000m1001hPa9%
19-Jun-2024 15:00Broken Clouds38°C18 mph, W61%10000m1001hPa14%
19-Jun-2024 18:00Broken Clouds36°C4 mph, N67%10000m1003hPa15%
19-Jun-2024 21:00Scattered Clouds33°C7 mph, NE46%10000m1003hPa12%
20-Jun-2024 00:00Scattered Clouds31°C4 mph, NE27%10000m1003hPa13%
20-Jun-2024 03:00Clear Sky32°C7 mph, NE1%10000m1005hPa13%
20-Jun-2024 06:00Clear Sky37°C11 mph, NE0%10000m1004hPa10%
20-Jun-2024 09:00Clear Sky40°C9 mph, NE1%10000m1002hPa8%
20-Jun-2024 12:00Clear Sky41°C7 mph, E3%10000m999hPa8%
20-Jun-2024 15:00Overcast Clouds39°C9 mph, SW95%10000m999hPa9%
20-Jun-2024 18:00Overcast Clouds36°C4 mph, S87%10000m1001hPa14%
20-Jun-2024 21:00Broken Clouds33°C7 mph, E73%10000m1002hPa12%
21-Jun-2024 00:00Scattered Clouds31°C7 mph, NE39%10000m1003hPa14%
21-Jun-2024 03:00Clear Sky32°C4 mph, NE1%10000m1004hPa14%
21-Jun-2024 06:00Clear Sky37°C11 mph, NE0%10000m1004hPa10%